Costa Pacifica — ICJA — position and weather

sailwx.info

Track history (hours):
 
Tides and Currents Weather Stations Pressure Air Temp Water Temp Dewpoint Dewpoint Depression Visibility Wind Speed Wind Dir Waves Ship Positions

Costa Pacifica

Last reported at 2018-Feb-18 05:57 UTC. Time now 2018-Feb-19 10:18 UTC.
Position N 15°53' W 061°48'.

Length 290 m; draft 8.3 m.

Type: Ship. MMSI: 247258100.

Date/timePositionNaut miles runAvg speedWind from/ knotsBaromVisibWave heightAir tempDewpointWater temp
2018-Feb-18 05:57N 15°53' W 061°48'2111.3
2018-Feb-18 04:04N 16°07' W 061°31'210.6
2018-Feb-18 03:54N 16°09' W 061°31'4 7.9
2018-Feb-18 03:26N 16°12' W 061°32'2 4.6
2018-Feb-18 03:00N 16°14' W 061°32'0 0.0
2018-Feb-18 02:30N 16°14' W 061°32'0 0.0
2018-Feb-18 01:57N 16°14' W 061°32'0 0.0
2018-Feb-18 01:30N 16°14' W 061°32'0 0.0
2018-Feb-18 00:53N 16°14' W 061°32'0 0.0
2018-Feb-18 00:29N 16°14' W 061°32'0 0.0
2018-Feb-17 23:53N 16°14' W 061°32'0 0.0
2018-Feb-17 23:26N 16°14' W 061°32'0 0.0
2018-Feb-17 22:56N 16°14' W 061°32'0 0.0
2018-Feb-17 22:22N 16°14' W 061°32'0 0.0
2018-Feb-17 21:55N 16°14' W 061°32'0 0.0
2018-Feb-17 21:28N 16°14' W 061°32'0 0.0
2018-Feb-17 20:40N 16°14' W 061°32'0 0.0
2018-Feb-17 20:22N 16°14' W 061°32'0 0.0
2018-Feb-17 19:54N 16°14' W 061°32'0 0.0
2018-Feb-17 19:30N 16°14' W 061°32'0 0.0
2018-Feb-17 18:54N 16°14' W 061°32'0 0.0
2018-Feb-17 17:59N 16°14' W 061°32'0 0.0
2018-Feb-17 17:29N 16°14' W 061°32'0 0.0
2018-Feb-17 16:59N 16°14' W 061°32'0 0.0
2018-Feb-17 16:29N 16°14' W 061°32'0 0.0
2018-Feb-17 15:56N 16°14' W 061°32'0 0.0
2018-Feb-17 15:25N 16°14' W 061°32'0 0.0
2018-Feb-17 14:58N 16°14' W 061°32'0 0.0
2018-Feb-17 14:25N 16°14' W 061°32'0 0.0
2018-Feb-17 13:58N 16°14' W 061°32'0 0.0
2018-Feb-17 13:18N 16°14' W 061°32'0 0.0
2018-Feb-17 12:51N 16°14' W 061°32'0 0.0
2018-Feb-17 12:24N 16°14' W 061°32'0 0.0
2018-Feb-17 11:45N 16°14' W 061°32'0 0.0
2018-Feb-17 11:30N 16°14' W 061°32'2 3.3
2018-Feb-17 11:00N 16°13' W 061°32'3 6.9
2018-Feb-17 10:30N 16°09' W 061°31'4 7.5
2018-Feb-17 10:00N 16°06' W 061°28'510.7
2018-Feb-17 09:30N 16°01' W 061°29'1311.5
2018-Feb-17 08:20N 15°48' W 061°33'7012.0
2018-Feb-17 02:29N 14°40' W 061°17'612.3
2018-Feb-17 01:58N 14°36' W 061°11'612.5
2018-Feb-17 01:30N 14°35' W 061°05'2 4.1
2018-Feb-17 01:00N 14°36' W 061°04'0 0.0
2018-Feb-17 00:30N 14°36' W 061°04'0 0.0
2018-Feb-17 00:00N 14°36' W 061°04'0 0.0
2018-Feb-16 23:30N 14°36' W 061°04'0 0.0
2018-Feb-16 22:59N 14°36' W 061°04'0 0.0
2018-Feb-16 22:29N 14°36' W 061°04'0 0.0
2018-Feb-16 21:59N 14°36' W 061°04'0 0.0
2018-Feb-16 21:29N 14°36' W 061°04'0 0.0
2018-Feb-16 20:58N 14°36' W 061°04'0 0.0
2018-Feb-16 20:25N 14°36' W 061°04'0 0.0
2018-Feb-16 19:58N 14°36' W 061°04'0 0.0
2018-Feb-16 19:28N 14°36' W 061°04'0 0.0
2018-Feb-16 18:58N 14°36' W 061°04'0 0.0
2018-Feb-16 18:30N 14°36' W 061°04'0 0.0
2018-Feb-16 18:00N 14°36' W 061°04'0 0.0
2018-Feb-16 17:30N 14°36' W 061°04'0 0.0
2018-Feb-16 17:00N 14°36' W 061°04'0 0.0
2018-Feb-16 16:23N 14°36' W 061°04'0 0.0
2018-Feb-16 15:56N 14°36' W 061°04'0 0.0
2018-Feb-16 15:29N 14°36' W 061°04'0 0.0
2018-Feb-16 14:59N 14°36' W 061°04'0 0.0
2018-Feb-16 14:29N 14°36' W 061°04'0 0.0
2018-Feb-16 13:58N 14°36' W 061°04'0 0.0
2018-Feb-16 13:28N 14°36' W 061°04'0 0.0
2018-Feb-16 12:58N 14°36' W 061°04'0 0.3
2018-Feb-16 12:30N 14°36' W 061°04'2 3.1
2018-Feb-16 12:00N 14°35' W 061°05'913.8
2018-Feb-16 11:23N 14°39' W 061°12'4113.8
2018-Feb-16 08:24N 15°16' W 061°32'913.5
2018-Feb-16 07:45N 15°24' W 061°35'313.3
2018-Feb-16 07:30N 15°27' W 061°37'712.9
2018-Feb-16 06:58N 15°33' W 061°40'612.6
2018-Feb-16 06:30N 15°38' W 061°43'712.3
2018-Feb-16 05:57N 15°44' W 061°46'612.5
2018-Feb-16 05:26N 15°50' W 061°49'1812.8
2018-Feb-16 04:00N 16°07' W 061°57'713.0
2018-Feb-16 03:30N 16°13' W 061°60'612.3
2018-Feb-16 03:00N 16°18' W 062°02'612.5
2018-Feb-16 02:30N 16°25' W 062°01'612.4
2018-Feb-16 02:00N 16°31' W 062°01'612.4
2018-Feb-16 01:30N 16°37' W 062°00'612.5
2018-Feb-16 01:00N 16°43' W 061°60'612.7
2018-Feb-16 00:30N 16°50' W 061°59'713.0
2018-Feb-16 00:00N 16°56' W 061°59'713.1
2018-Feb-15 23:30N 17°03' W 061°59'612.2
2018-Feb-15 23:00N 17°09' W 061°57'510.1
2018-Feb-15 22:30N 17°08' W 061°52'1 2.1
2018-Feb-15 22:00N 17°07' W 061°51'0 0.0
2018-Feb-15 21:29N 17°07' W 061°51'0 0.0
2018-Feb-15 20:59N 17°07' W 061°51'0 0.0
2018-Feb-15 20:29N 17°07' W 061°51'0 0.0
2018-Feb-15 19:59N 17°07' W 061°51'0 0.0
2018-Feb-15 19:28N 17°07' W 061°51'0 0.0
2018-Feb-15 18:58N 17°07' W 061°51'0 0.0
2018-Feb-15 18:28N 17°07' W 061°51'0 0.0
2018-Feb-15 17:58N 17°07' W 061°51'0 0.0
2018-Feb-15 17:28N 17°07' W 061°51'0 0.0
2018-Feb-15 17:00N 17°07' W 061°51'0 0.0
2018-Feb-15 16:30N 17°07' W 061°51'0 0.0
2018-Feb-15 16:00N 17°07' W 061°51'0 0.0
2018-Feb-15 15:30N 17°07' W 061°51'0 0.0
2018-Feb-15 14:57N 17°07' W 061°51'0 0.0
2018-Feb-15 14:29N 17°07' W 061°51'0 0.0
2018-Feb-15 13:59N 17°07' W 061°51'0 0.0
2018-Feb-15 13:29N 17°07' W 061°51'0 0.0
2018-Feb-15 12:59N 17°07' W 061°51'0 0.0
2018-Feb-15 12:28N 17°07' W 061°51'0 0.0
2018-Feb-15 11:58N 17°07' W 061°51'0 0.0
2018-Feb-15 11:28N 17°07' W 061°51'0 0.0
2018-Feb-15 10:55N 17°07' W 061°51'0 0.1
2018-Feb-15 10:30N 17°07' W 061°51'3 5.7
2018-Feb-15 10:00N 17°08' W 061°54'4 7.8
2018-Feb-15 09:29N 17°09' W 061°58'5 9.8
2018-Feb-15 09:00N 17°05' W 062°02'510.6
2018-Feb-15 08:30N 17°02' W 062°06'611.1
2018-Feb-15 08:00N 16°58' W 062°10'611.0
2018-Feb-15 07:30N 16°54' W 062°14'510.8
2018-Feb-15 07:00N 16°51' W 062°18'611.0
2018-Feb-15 06:30N 16°47' W 062°22'611.1
2018-Feb-15 06:00N 16°43' W 062°27'611.3
2018-Feb-15 05:30N 16°39' W 062°31'5 9.9
2018-Feb-15 05:00N 16°39' W 062°36'1611.8
2018-Feb-15 03:38N 16°50' W 062°48'910.7
2018-Feb-15 02:48N 16°58' W 062°51'18 1.8
2018-Feb-14 17:05N 17°16' W 062°48'420.1
2018-Feb-14 16:53N 17°15' W 062°51'820.2
2018-Feb-14 16:30N 17°13' W 062°59'1720.0
2018-Feb-14 15:38N 17°08' W 063°17'  
2018-Feb-11 06:10N 15°53' W 061°49'2411.3
2018-Feb-11 04:03N 16°09' W 061°31'0 7.8
2018-Feb-11 03:59N 16°09' W 061°31'5 6.4
2018-Feb-11 03:12N 16°14' W 061°32'0 0.0
2018-Feb-11 02:42N 16°14' W 061°32'0 0.0
2018-Feb-11 02:23N 16°14' W 061°32'0 0.0
2018-Feb-11 01:50N 16°14' W 061°32'0 0.0
2018-Feb-11 01:23N 16°14' W 061°32'0 0.0
2018-Feb-11 00:56N 16°14' W 061°32'0 0.0
2018-Feb-10 23:25N 16°14' W 061°32'0 0.0
2018-Feb-10 22:58N 16°14' W 061°32'0 0.0
2018-Feb-10 22:25N 16°14' W 061°32'0 0.0
2018-Feb-10 21:51N 16°14' W 061°32'0 0.0
2018-Feb-10 21:30N 16°14' W 061°32'0 0.0
2018-Feb-10 21:00N 16°14' W 061°32'0 0.0
2018-Feb-10 20:27N 16°14' W 061°32'0 0.0
2018-Feb-10 19:54N 16°14' W 061°32'0 0.0
2018-Feb-10 19:26N 16°14' W 061°32'0 0.0
2018-Feb-10 18:59N 16°14' W 061°32'0 0.0
2018-Feb-10 18:29N 16°14' W 061°32'0 0.0
2018-Feb-10 17:59N 16°14' W 061°32'0 0.0
2018-Feb-10 17:29N 16°14' W 061°32'0 0.0
2018-Feb-10 16:52N 16°14' W 061°32'0 0.0
2018-Feb-10 16:28N 16°14' W 061°32'0 0.0
2018-Feb-10 15:55N 16°14' W 061°32'0 0.0
2018-Feb-10 15:25N 16°14' W 061°32'0 0.0
2018-Feb-10 15:00N 16°14' W 061°32'0 0.0
2018-Feb-10 14:30N 16°14' W 061°32'0 0.0
2018-Feb-10 14:00N 16°14' W 061°32'0 0.0
2018-Feb-10 13:30N 16°14' W 061°32'0 0.0
2018-Feb-10 12:57N 16°14' W 061°32'0 0.0
2018-Feb-10 12:29N 16°14' W 061°32'0 0.0
2018-Feb-10 11:53N 16°14' W 061°32'0 0.2
2018-Feb-10 11:30N 16°14' W 061°32'2 4.5
2018-Feb-10 11:00N 16°12' W 061°32'4 6.2
2018-Feb-10 10:27N 16°09' W 061°29'4 8.6
2018-Feb-10 10:00N 16°06' W 061°28'611.4
2018-Feb-10 09:30N 16°00' W 061°30'1211.0
2018-Feb-10 08:25N 15°49' W 061°33'7111.6
2018-Feb-10 02:19N 14°40' W 061°16'412.5
2018-Feb-10 02:00N 14°37' W 061°13'612.4
2018-Feb-10 01:30N 14°35' W 061°07'3 6.6
2018-Feb-10 00:58N 14°36' W 061°04'0 0.0
2018-Feb-10 00:28N 14°36' W 061°04'0 0.0
2018-Feb-09 23:58N 14°36' W 061°04'0 0.0
2018-Feb-09 23:28N 14°36' W 061°04'0 0.0
2018-Feb-09 23:00N 14°36' W 061°04'0 0.0
2018-Feb-09 22:45N 14°36' W 061°04'0 0.0
2018-Feb-09 12:31N 14°36' W 061°04'2 3.3
2018-Feb-09 12:01N 14°35' W 061°05'12812.8
2018-Feb-09 02:00N 16°31' W 062°01'3012.1
2018-Feb-08 23:30N 17°01' W 061°59'9 9.1
2018-Feb-08 22:30N 17°08' W 061°53'2 0.2
2018-Feb-08 10:30N 17°07' W 061°51'3 5.1
2018-Feb-08 10:00N 17°08' W 061°53'4 7.5
2018-Feb-08 09:30N 17°09' W 061°57'10 9.9
2018-Feb-08 08:30N 17°02' W 062°05'510.7
2018-Feb-08 08:00N 16°59' W 062°09'1010.5
2018-Feb-08 07:00N 16°52' W 062°17'510.6
2018-Feb-08 06:30N 16°48' W 062°21'510.8
2018-Feb-08 06:00N 16°44' W 062°25'  
Track history (hours):
 
Tides and Currents Weather Stations Pressure Air Temp Water Temp Dewpoint Dewpoint Depression Visibility Wind Speed Wind Dir Waves Ship Positions

Costa Pacifica

Last reported at 2018-Feb-18 05:57 UTC. Time now 2018-Feb-19 10:18 UTC.
Position N 15°53' W 061°48'.

Length 290 m; draft 8.3 m.

Type: Ship. MMSI: 247258100.

Date/timePositionNaut miles runAvg speedWind from/ knotsBaromVisibWave heightAir tempDewpointWater temp
2018-Feb-18 05:57N 15°53' W 061°48'2111.3
2018-Feb-18 04:04N 16°07' W 061°31'210.6
2018-Feb-18 03:54N 16°09' W 061°31'4 7.9
2018-Feb-18 03:26N 16°12' W 061°32'2 4.6
2018-Feb-18 03:00N 16°14' W 061°32'0 0.0
2018-Feb-18 02:30N 16°14' W 061°32'0 0.0
2018-Feb-18 01:57N 16°14' W 061°32'0 0.0
2018-Feb-18 01:30N 16°14' W 061°32'0 0.0
2018-Feb-18 00:53N 16°14' W 061°32'0 0.0
2018-Feb-18 00:29N 16°14' W 061°32'0 0.0
2018-Feb-17 23:53N 16°14' W 061°32'0 0.0
2018-Feb-17 23:26N 16°14' W 061°32'0 0.0
2018-Feb-17 22:56N 16°14' W 061°32'0 0.0
2018-Feb-17 22:22N 16°14' W 061°32'0 0.0
2018-Feb-17 21:55N 16°14' W 061°32'0 0.0
2018-Feb-17 21:28N 16°14' W 061°32'0 0.0
2018-Feb-17 20:40N 16°14' W 061°32'0 0.0
2018-Feb-17 20:22N 16°14' W 061°32'0 0.0
2018-Feb-17 19:54N 16°14' W 061°32'0 0.0
2018-Feb-17 19:30N 16°14' W 061°32'0 0.0
2018-Feb-17 18:54N 16°14' W 061°32'0 0.0
2018-Feb-17 17:59N 16°14' W 061°32'0 0.0
2018-Feb-17 17:29N 16°14' W 061°32'0 0.0
2018-Feb-17 16:59N 16°14' W 061°32'0 0.0
2018-Feb-17 16:29N 16°14' W 061°32'0 0.0
2018-Feb-17 15:56N 16°14' W 061°32'0 0.0
2018-Feb-17 15:25N 16°14' W 061°32'0 0.0
2018-Feb-17 14:58N 16°14' W 061°32'0 0.0
2018-Feb-17 14:25N 16°14' W 061°32'0 0.0
2018-Feb-17 13:58N 16°14' W 061°32'0 0.0
2018-Feb-17 13:18N 16°14' W 061°32'0 0.0
2018-Feb-17 12:51N 16°14' W 061°32'0 0.0
2018-Feb-17 12:24N 16°14' W 061°32'0 0.0
2018-Feb-17 11:45N 16°14' W 061°32'0 0.0
2018-Feb-17 11:30N 16°14' W 061°32'2 3.3
2018-Feb-17 11:00N 16°13' W 061°32'3 6.9
2018-Feb-17 10:30N 16°09' W 061°31'4 7.5
2018-Feb-17 10:00N 16°06' W 061°28'510.7
2018-Feb-17 09:30N 16°01' W 061°29'1311.5
2018-Feb-17 08:20N 15°48' W 061°33'7012.0
2018-Feb-17 02:29N 14°40' W 061°17'612.3
2018-Feb-17 01:58N 14°36' W 061°11'612.5
2018-Feb-17 01:30N 14°35' W 061°05'2 4.1
2018-Feb-17 01:00N 14°36' W 061°04'0 0.0
2018-Feb-17 00:30N 14°36' W 061°04'0 0.0
2018-Feb-17 00:00N 14°36' W 061°04'0 0.0
2018-Feb-16 23:30N 14°36' W 061°04'0 0.0
2018-Feb-16 22:59N 14°36' W 061°04'0 0.0
2018-Feb-16 22:29N 14°36' W 061°04'0 0.0
2018-Feb-16 21:59N 14°36' W 061°04'0 0.0
2018-Feb-16 21:29N 14°36' W 061°04'0 0.0
2018-Feb-16 20:58N 14°36' W 061°04'0 0.0
2018-Feb-16 20:25N 14°36' W 061°04'0 0.0
2018-Feb-16 19:58N 14°36' W 061°04'0 0.0
2018-Feb-16 19:28N 14°36' W 061°04'0 0.0
2018-Feb-16 18:58N 14°36' W 061°04'0 0.0
2018-Feb-16 18:30N 14°36' W 061°04'0 0.0
2018-Feb-16 18:00N 14°36' W 061°04'0 0.0
2018-Feb-16 17:30N 14°36' W 061°04'0 0.0
2018-Feb-16 17:00N 14°36' W 061°04'0 0.0
2018-Feb-16 16:23N 14°36' W 061°04'0 0.0
2018-Feb-16 15:56N 14°36' W 061°04'0 0.0
2018-Feb-16 15:29N 14°36' W 061°04'0 0.0
2018-Feb-16 14:59N 14°36' W 061°04'0 0.0
2018-Feb-16 14:29N 14°36' W 061°04'0 0.0
2018-Feb-16 13:58N 14°36' W 061°04'0 0.0
2018-Feb-16 13:28N 14°36' W 061°04'0 0.0
2018-Feb-16 12:58N 14°36' W 061°04'0 0.3
2018-Feb-16 12:30N 14°36' W 061°04'2 3.1
2018-Feb-16 12:00N 14°35' W 061°05'913.8
2018-Feb-16 11:23N 14°39' W 061°12'4113.8
2018-Feb-16 08:24N 15°16' W 061°32'913.5
2018-Feb-16 07:45N 15°24' W 061°35'313.3
2018-Feb-16 07:30N 15°27' W 061°37'712.9
2018-Feb-16 06:58N 15°33' W 061°40'612.6
2018-Feb-16 06:30N 15°38' W 061°43'712.3
2018-Feb-16 05:57N 15°44' W 061°46'612.5
2018-Feb-16 05:26N 15°50' W 061°49'1812.8
2018-Feb-16 04:00N 16°07' W 061°57'713.0
2018-Feb-16 03:30N 16°13' W 061°60'612.3
2018-Feb-16 03:00N 16°18' W 062°02'612.5
2018-Feb-16 02:30N 16°25' W 062°01'612.4
2018-Feb-16 02:00N 16°31' W 062°01'612.4
2018-Feb-16 01:30N 16°37' W 062°00'612.5
2018-Feb-16 01:00N 16°43' W 061°60'612.7
2018-Feb-16 00:30N 16°50' W 061°59'713.0
2018-Feb-16 00:00N 16°56' W 061°59'713.1
2018-Feb-15 23:30N 17°03' W 061°59'612.2
2018-Feb-15 23:00N 17°09' W 061°57'510.1
2018-Feb-15 22:30N 17°08' W 061°52'1 2.1
2018-Feb-15 22:00N 17°07' W 061°51'0 0.0
2018-Feb-15 21:29N 17°07' W 061°51'0 0.0
2018-Feb-15 20:59N 17°07' W 061°51'0 0.0
2018-Feb-15 20:29N 17°07' W 061°51'0 0.0
2018-Feb-15 19:59N 17°07' W 061°51'0 0.0
2018-Feb-15 19:28N 17°07' W 061°51'0 0.0
2018-Feb-15 18:58N 17°07' W 061°51'0 0.0
2018-Feb-15 18:28N 17°07' W 061°51'0 0.0
2018-Feb-15 17:58N 17°07' W 061°51'0 0.0
2018-Feb-15 17:28N 17°07' W 061°51'0 0.0
2018-Feb-15 17:00N 17°07' W 061°51'0 0.0
2018-Feb-15 16:30N 17°07' W 061°51'0 0.0
2018-Feb-15 16:00N 17°07' W 061°51'0 0.0
2018-Feb-15 15:30N 17°07' W 061°51'0 0.0
2018-Feb-15 14:57N 17°07' W 061°51'0 0.0
2018-Feb-15 14:29N 17°07' W 061°51'0 0.0
2018-Feb-15 13:59N 17°07' W 061°51'0 0.0
2018-Feb-15 13:29N 17°07' W 061°51'0 0.0
2018-Feb-15 12:59N 17°07' W 061°51'0 0.0
2018-Feb-15 12:28N 17°07' W 061°51'0 0.0
2018-Feb-15 11:58N 17°07' W 061°51'0 0.0
2018-Feb-15 11:28N 17°07' W 061°51'0 0.0
2018-Feb-15 10:55N 17°07' W 061°51'0 0.1
2018-Feb-15 10:30N 17°07' W 061°51'3 5.7
2018-Feb-15 10:00N 17°08' W 061°54'4 7.8
2018-Feb-15 09:29N 17°09' W 061°58'5 9.8
2018-Feb-15 09:00N 17°05' W 062°02'510.6
2018-Feb-15 08:30N 17°02' W 062°06'611.1
2018-Feb-15 08:00N 16°58' W 062°10'611.0
2018-Feb-15 07:30N 16°54' W 062°14'510.8
2018-Feb-15 07:00N 16°51' W 062°18'611.0
2018-Feb-15 06:30N 16°47' W 062°22'611.1
2018-Feb-15 06:00N 16°43' W 062°27'611.3
2018-Feb-15 05:30N 16°39' W 062°31'5 9.9
2018-Feb-15 05:00N 16°39' W 062°36'1611.8
2018-Feb-15 03:38N 16°50' W 062°48'910.7
2018-Feb-15 02:48N 16°58' W 062°51'18 1.8
2018-Feb-14 17:05N 17°16' W 062°48'420.1
2018-Feb-14 16:53N 17°15' W 062°51'820.2
2018-Feb-14 16:30N 17°13' W 062°59'1720.0
2018-Feb-14 15:38N 17°08' W 063°17'  
2018-Feb-11 06:10N 15°53' W 061°49'2411.3
2018-Feb-11 04:03N 16°09' W 061°31'0 7.8
2018-Feb-11 03:59N 16°09' W 061°31'5 6.4
2018-Feb-11 03:12N 16°14' W 061°32'0 0.0
2018-Feb-11 02:42N 16°14' W 061°32'0 0.0
2018-Feb-11 02:23N 16°14' W 061°32'0 0.0
2018-Feb-11 01:50N 16°14' W 061°32'0 0.0
2018-Feb-11 01:23N 16°14' W 061°32'0 0.0
2018-Feb-11 00:56N 16°14' W 061°32'0 0.0
2018-Feb-10 23:25N 16°14' W 061°32'0 0.0
2018-Feb-10 22:58N 16°14' W 061°32'0 0.0
2018-Feb-10 22:25N 16°14' W 061°32'0 0.0
2018-Feb-10 21:51N 16°14' W 061°32'0 0.0
2018-Feb-10 21:30N 16°14' W 061°32'0 0.0
2018-Feb-10 21:00N 16°14' W 061°32'0 0.0
2018-Feb-10 20:27N 16°14' W 061°32'0 0.0
2018-Feb-10 19:54N 16°14' W 061°32'0 0.0
2018-Feb-10 19:26N 16°14' W 061°32'0 0.0
2018-Feb-10 18:59N 16°14' W 061°32'0 0.0
2018-Feb-10 18:29N 16°14' W 061°32'0 0.0
2018-Feb-10 17:59N 16°14' W 061°32'0 0.0
2018-Feb-10 17:29N 16°14' W 061°32'0 0.0
2018-Feb-10 16:52N 16°14' W 061°32'0 0.0
2018-Feb-10 16:28N 16°14' W 061°32'0 0.0
2018-Feb-10 15:55N 16°14' W 061°32'0 0.0
2018-Feb-10 15:25N 16°14' W 061°32'0 0.0
2018-Feb-10 15:00N 16°14' W 061°32'0 0.0
2018-Feb-10 14:30N 16°14' W 061°32'0 0.0
2018-Feb-10 14:00N 16°14' W 061°32'0 0.0
2018-Feb-10 13:30N 16°14' W 061°32'0 0.0
2018-Feb-10 12:57N 16°14' W 061°32'0 0.0
2018-Feb-10 12:29N 16°14' W 061°32'0 0.0
2018-Feb-10 11:53N 16°14' W 061°32'0 0.2
2018-Feb-10 11:30N 16°14' W 061°32'2 4.5
2018-Feb-10 11:00N 16°12' W 061°32'4 6.2
2018-Feb-10 10:27N 16°09' W 061°29'4 8.6
2018-Feb-10 10:00N 16°06' W 061°28'611.4
2018-Feb-10 09:30N 16°00' W 061°30'1211.0
2018-Feb-10 08:25N 15°49' W 061°33'7111.6
2018-Feb-10 02:19N 14°40' W 061°16'412.5
2018-Feb-10 02:00N 14°37' W 061°13'612.4
2018-Feb-10 01:30N 14°35' W 061°07'3 6.6
2018-Feb-10 00:58N 14°36' W 061°04'0 0.0
2018-Feb-10 00:28N 14°36' W 061°04'0 0.0
2018-Feb-09 23:58N 14°36' W 061°04'0 0.0
2018-Feb-09 23:28N 14°36' W 061°04'0 0.0
2018-Feb-09 23:00N 14°36' W 061°04'0 0.0
2018-Feb-09 22:45N 14°36' W 061°04'0 0.0
2018-Feb-09 12:31N 14°36' W 061°04'2 3.3
2018-Feb-09 12:01N 14°35' W 061°05'12812.8
2018-Feb-09 02:00N 16°31' W 062°01'3012.1
2018-Feb-08 23:30N 17°01' W 061°59'9 9.1
2018-Feb-08 22:30N 17°08' W 061°53'2 0.2
2018-Feb-08 10:30N 17°07' W 061°51'3 5.1
2018-Feb-08 10:00N 17°08' W 061°53'4 7.5
2018-Feb-08 09:30N 17°09' W 061°57'10 9.9
2018-Feb-08 08:30N 17°02' W 062°05'510.7
2018-Feb-08 08:00N 16°59' W 062°09'1010.5
2018-Feb-08 07:00N 16°52' W 062°17'510.6
2018-Feb-08 06:30N 16°48' W 062°21'510.8
2018-Feb-08 06:00N 16°44' W 062°25'  

Dump ship's entire track history